sensor_id;sensor_type;location;lat;lon;timestamp;temperature;humidity
45237;DHT22;30973;51.442;3.580;2022-08-21T00:00:18;18.70;99.90
45237;DHT22;30973;51.442;3.580;2022-08-21T00:02:51;18.70;99.90
45237;DHT22;30973;51.442;3.580;2022-08-21T00:05:19;18.70;99.90
45237;DHT22;30973;51.442;3.580;2022-08-21T00:07:46;18.70;99.90
45237;DHT22;30973;51.442;3.580;2022-08-21T00:10:14;18.70;99.90
45237;DHT22;30973;51.442;3.580;2022-08-21T00:12:42;18.60;99.90
45237;DHT22;30973;51.442;3.580;2022-08-21T00:15:12;18.70;99.90
45237;DHT22;30973;51.442;3.580;2022-08-21T00:17:40;18.70;99.90
45237;DHT22;30973;51.442;3.580;2022-08-21T00:20:09;18.70;99.90
45237;DHT22;30973;51.442;3.580;2022-08-21T00:22:37;18.60;99.90
45237;DHT22;30973;51.442;3.580;2022-08-21T00:25:06;18.70;99.90
45237;DHT22;30973;51.442;3.580;2022-08-21T00:27:35;18.60;99.90
45237;DHT22;30973;51.442;3.580;2022-08-21T00:30:05;18.60;99.90
45237;DHT22;30973;51.442;3.580;2022-08-21T00:32:33;18.60;99.90
45237;DHT22;30973;51.442;3.580;2022-08-21T00:35:04;18.60;99.90
45237;DHT22;30973;51.442;3.580;2022-08-21T00:37:31;18.60;99.90
45237;DHT22;30973;51.442;3.580;2022-08-21T00:40:01;18.60;99.90
45237;DHT22;30973;51.442;3.580;2022-08-21T00:42:29;18.60;99.90
45237;DHT22;30973;51.442;3.580;2022-08-21T00:44:57;18.60;99.90
45237;DHT22;30973;51.442;3.580;2022-08-21T00:47:25;18.50;99.90
45237;DHT22;30973;51.442;3.580;2022-08-21T00:49:52;18.50;99.90
45237;DHT22;30973;51.442;3.580;2022-08-21T00:52:23;18.50;99.90
45237;DHT22;30973;51.442;3.580;2022-08-21T00:54:52;18.40;99.90
45237;DHT22;30973;51.442;3.580;2022-08-21T00:57:27;18.40;99.90
45237;DHT22;30973;51.442;3.580;2022-08-21T01:00:00;18.40;99.90
45237;DHT22;30973;51.442;3.580;2022-08-21T01:02:28;18.40;99.90
45237;DHT22;30973;51.442;3.580;2022-08-21T01:04:57;18.30;99.90
45237;DHT22;30973;51.442;3.580;2022-08-21T01:07:25;18.30;99.90
45237;DHT22;30973;51.442;3.580;2022-08-21T01:09:53;18.30;99.90
45237;DHT22;30973;51.442;3.580;2022-08-21T01:12:20;18.30;99.90
45237;DHT22;30973;51.442;3.580;2022-08-21T01:14:48;18.20;99.90
45237;DHT22;30973;51.442;3.580;2022-08-21T01:17:16;18.20;99.90
45237;DHT22;30973;51.442;3.580;2022-08-21T01:19:44;18.20;99.90
45237;DHT22;30973;51.442;3.580;2022-08-21T01:22:12;18.20;99.90
45237;DHT22;30973;51.442;3.580;2022-08-21T01:24:39;18.20;99.90
45237;DHT22;30973;51.442;3.580;2022-08-21T01:27:08;18.10;99.90
45237;DHT22;30973;51.442;3.580;2022-08-21T01:29:51;18.10;99.90
45237;DHT22;30973;51.442;3.580;2022-08-21T01:32:20;18.10;99.90
45237;DHT22;30973;51.442;3.580;2022-08-21T01:34:50;18.10;99.90
45237;DHT22;30973;51.442;3.580;2022-08-21T01:37:19;18.10;99.90
45237;DHT22;30973;51.442;3.580;2022-08-21T01:39:47;18.10;99.90
45237;DHT22;30973;51.442;3.580;2022-08-21T01:42:15;18.10;99.90
45237;DHT22;30973;51.442;3.580;2022-08-21T01:44:42;18.00;99.90
45237;DHT22;30973;51.442;3.580;2022-08-21T01:47:12;17.90;99.90
45237;DHT22;30973;51.442;3.580;2022-08-21T01:49:44;17.90;99.90
45237;DHT22;30973;51.442;3.580;2022-08-21T01:52:12;17.90;99.90
45237;DHT22;30973;51.442;3.580;2022-08-21T01:54:40;17.90;99.90
45237;DHT22;30973;51.442;3.580;2022-08-21T01:57:08;17.90;99.90
45237;DHT22;30973;51.442;3.580;2022-08-21T01:59:36;17.90;99.90
45237;DHT22;30973;51.442;3.580;2022-08-21T02:02:04;17.90;99.90
45237;DHT22;30973;51.442;3.580;2022-08-21T02:04:32;17.90;99.90
45237;DHT22;30973;51.442;3.580;2022-08-21T02:07:00;17.80;99.90
45237;DHT22;30973;51.442;3.580;2022-08-21T02:09:28;17.90;99.90
45237;DHT22;30973;51.442;3.580;2022-08-21T02:11:56;17.80;99.90
45237;DHT22;30973;51.442;3.580;2022-08-21T02:14:23;17.90;99.90
45237;DHT22;30973;51.442;3.580;2022-08-21T02:16:59;17.80;99.90
45237;DHT22;30973;51.442;3.580;2022-08-21T02:19:36;17.80;99.90
45237;DHT22;30973;51.442;3.580;2022-08-21T02:22:08;17.70;99.90
45237;DHT22;30973;51.442;3.580;2022-08-21T02:24:37;17.70;99.90
45237;DHT22;30973;51.442;3.580;2022-08-21T02:27:24;17.70;99.90
45237;DHT22;30973;51.442;3.580;2022-08-21T02:29:55;17.60;99.90
45237;DHT22;30973;51.442;3.580;2022-08-21T02:32:23;17.60;99.90
45237;DHT22;30973;51.442;3.580;2022-08-21T02:34:50;17.70;99.90
45237;DHT22;30973;51.442;3.580;2022-08-21T02:37:18;17.60;99.90
45237;DHT22;30973;51.442;3.580;2022-08-21T02:39:45;17.60;99.90
45237;DHT22;30973;51.442;3.580;2022-08-21T02:42:12;17.60;99.90
45237;DHT22;30973;51.442;3.580;2022-08-21T02:44:39;17.60;99.90
45237;DHT22;30973;51.442;3.580;2022-08-21T02:47:07;17.50;99.90
45237;DHT22;30973;51.442;3.580;2022-08-21T02:49:34;17.60;99.90
45237;DHT22;30973;51.442;3.580;2022-08-21T02:52:01;17.60;99.90
45237;DHT22;30973;51.442;3.580;2022-08-21T02:54:28;17.50;99.90
45237;DHT22;30973;51.442;3.580;2022-08-21T02:56:55;17.50;99.90
45237;DHT22;30973;51.442;3.580;2022-08-21T02:59:23;17.50;99.90
45237;DHT22;30973;51.442;3.580;2022-08-21T03:01:50;17.50;99.90
45237;DHT22;30973;51.442;3.580;2022-08-21T03:04:18;17.50;99.90
45237;DHT22;30973;51.442;3.580;2022-08-21T03:06:45;17.40;99.90
45237;DHT22;30973;51.442;3.580;2022-08-21T03:09:12;17.30;99.90
45237;DHT22;30973;51.442;3.580;2022-08-21T03:11:40;17.40;99.90
45237;DHT22;30973;51.442;3.580;2022-08-21T03:14:07;17.40;99.90
45237;DHT22;30973;51.442;3.580;2022-08-21T03:16:35;17.40;99.90
45237;DHT22;30973;51.442;3.580;2022-08-21T03:19:02;17.40;99.90
45237;DHT22;30973;51.442;3.580;2022-08-21T03:21:30;17.40;99.90
45237;DHT22;30973;51.442;3.580;2022-08-21T03:23:57;17.40;99.90
45237;DHT22;30973;51.442;3.580;2022-08-21T03:26:24;17.40;99.90
45237;DHT22;30973;51.442;3.580;2022-08-21T03:28:54;17.40;99.90
45237;DHT22;30973;51.442;3.580;2022-08-21T08:39:51;22.50;98.30
45237;DHT22;30973;51.442;3.580;2022-08-21T08:42:28;22.40;98.00
45237;DHT22;30973;51.442;3.580;2022-08-21T08:45:05;22.30;97.20
45237;DHT22;30973;51.442;3.580;2022-08-21T08:47:37;22.20;97.30
45237;DHT22;30973;51.442;3.580;2022-08-21T08:50:28;22.20;97.10
45237;DHT22;30973;51.442;3.580;2022-08-21T08:53:07;22.20;97.30
45237;DHT22;30973;51.442;3.580;2022-08-21T08:55:41;22.30;97.20
45237;DHT22;30973;51.442;3.580;2022-08-21T08:58:27;22.50;97.20
45237;DHT22;30973;51.442;3.580;2022-08-21T09:00:58;22.30;96.30
45237;DHT22;30973;51.442;3.580;2022-08-21T09:03:26;22.40;96.90
45237;DHT22;30973;51.442;3.580;2022-08-21T09:06:25;22.50;96.50
45237;DHT22;30973;51.442;3.580;2022-08-21T09:23:02;22.50;95.90
45237;DHT22;30973;51.442;3.580;2022-08-21T09:25:42;22.60;95.90
45237;DHT22;30973;51.442;3.580;2022-08-21T09:28:12;22.70;96.00
45237;DHT22;30973;51.442;3.580;2022-08-21T09:30:41;22.60;95.40
45237;DHT22;30973;51.442;3.580;2022-08-21T09:33:11;22.70;95.80
45237;DHT22;30973;51.442;3.580;2022-08-21T09:35:55;22.80;95.50
45237;DHT22;30973;51.442;3.580;2022-08-21T09:38:27;22.90;95.80
45237;DHT22;30973;51.442;3.580;2022-08-21T09:40:58;22.90;95.20
45237;DHT22;30973;51.442;3.580;2022-08-21T09:43:27;22.90;95.20
45237;DHT22;30973;51.442;3.580;2022-08-21T09:46:10;23.00;95.10
45237;DHT22;30973;51.442;3.580;2022-08-21T09:48:46;23.10;95.10
45237;DHT22;30973;51.442;3.580;2022-08-21T09:51:21;23.10;94.70
45237;DHT22;30973;51.442;3.580;2022-08-21T09:54:09;23.30;95.20
45237;DHT22;30973;51.442;3.580;2022-08-21T09:59:45;23.90;94.90
45237;DHT22;30973;51.442;3.580;2022-08-21T10:05:00;24.20;93.70
45237;DHT22;30973;51.442;3.580;2022-08-21T10:07:30;24.30;94.00
45237;DHT22;30973;51.442;3.580;2022-08-21T10:13:00;24.30;93.00
45237;DHT22;30973;51.442;3.580;2022-08-21T10:18:56;24.20;93.10
45237;DHT22;30973;51.442;3.580;2022-08-21T10:24:27;24.30;93.20
45237;DHT22;30973;51.442;3.580;2022-08-21T10:30:00;24.50;92.20
45237;DHT22;30973;51.442;3.580;2022-08-21T10:35:28;24.40;92.40
45237;DHT22;30973;51.442;3.580;2022-08-21T10:40:49;24.70;92.50
45237;DHT22;30973;51.442;3.580;2022-08-21T10:43:45;24.70;92.60
45237;DHT22;30973;51.442;3.580;2022-08-21T10:46:26;25.00;92.90
45237;DHT22;30973;51.442;3.580;2022-08-21T10:48:57;25.10;92.60
45237;DHT22;30973;51.442;3.580;2022-08-21T10:51:42;25.10;91.90
45237;DHT22;30973;51.442;3.580;2022-08-21T10:56:54;25.30;91.70
45237;DHT22;30973;51.442;3.580;2022-08-21T10:59:48;25.40;90.50
45237;DHT22;30973;51.442;3.580;2022-08-21T11:02:26;25.50;91.50
45237;DHT22;30973;51.442;3.580;2022-08-21T11:08:15;25.50;91.20
45237;DHT22;30973;51.442;3.580;2022-08-21T11:10:52;25.60;91.20
45237;DHT22;30973;51.442;3.580;2022-08-21T11:16:06;25.70;91.10
45237;DHT22;30973;51.442;3.580;2022-08-21T11:18:37;25.80;90.70
45237;DHT22;30973;51.442;3.580;2022-08-21T11:23:45;25.90;91.10
45237;DHT22;30973;51.442;3.580;2022-08-21T11:29:17;25.70;90.60
45237;DHT22;30973;51.442;3.580;2022-08-21T11:37:53;25.70;91.00
45237;DHT22;30973;51.442;3.580;2022-08-21T11:40:34;25.80;91.30
45237;DHT22;30973;51.442;3.580;2022-08-21T11:43:34;25.80;90.60
45237;DHT22;30973;51.442;3.580;2022-08-21T11:52:20;25.80;90.60
45237;DHT22;30973;51.442;3.580;2022-08-21T11:54:59;25.90;91.00
45237;DHT22;30973;51.442;3.580;2022-08-21T12:00:42;26.00;90.40
45237;DHT22;30973;51.442;3.580;2022-08-21T12:03:32;26.10;90.70
45237;DHT22;30973;51.442;3.580;2022-08-21T12:06:04;26.20;90.60
45237;DHT22;30973;51.442;3.580;2022-08-21T12:11:08;26.30;90.40
45237;DHT22;30973;51.442;3.580;2022-08-21T12:13:39;26.50;90.60
45237;DHT22;30973;51.442;3.580;2022-08-21T12:16:14;26.60;90.60
45237;DHT22;30973;51.442;3.580;2022-08-21T12:18:43;26.80;90.70
45237;DHT22;30973;51.442;3.580;2022-08-21T12:21:27;26.80;90.20
45237;DHT22;30973;51.442;3.580;2022-08-21T12:24:05;26.60;90.00
45237;DHT22;30973;51.442;3.580;2022-08-21T12:26:52;26.30;89.70
45237;DHT22;30973;51.442;3.580;2022-08-21T12:29:29;26.20;90.00
45237;DHT22;30973;51.442;3.580;2022-08-21T12:32:04;26.10;90.40
45237;DHT22;30973;51.442;3.580;2022-08-21T12:34:46;26.00;90.30
45237;DHT22;30973;51.442;3.580;2022-08-21T12:40:04;25.90;91.00
45237;DHT22;30973;51.442;3.580;2022-08-21T12:42:39;25.80;90.50
45237;DHT22;30973;51.442;3.580;2022-08-21T12:45:33;25.60;90.90
45237;DHT22;30973;51.442;3.580;2022-08-21T12:48:10;25.50;90.80
45237;DHT22;30973;51.442;3.580;2022-08-21T12:56:07;25.40;90.70
45237;DHT22;30973;51.442;3.580;2022-08-21T12:58:35;25.30;91.10
45237;DHT22;30973;51.442;3.580;2022-08-21T13:01:12;25.20;90.30
45237;DHT22;30973;51.442;3.580;2022-08-21T13:03:41;25.20;90.50
45237;DHT22;30973;51.442;3.580;2022-08-21T13:06:14;25.20;90.90
45237;DHT22;30973;51.442;3.580;2022-08-21T13:08:44;25.10;91.20
45237;DHT22;30973;51.442;3.580;2022-08-21T13:11:16;25.00;90.90
45237;DHT22;30973;51.442;3.580;2022-08-21T13:14:02;25.20;91.40
45237;DHT22;30973;51.442;3.580;2022-08-21T13:16:31;25.30;90.70
45237;DHT22;30973;51.442;3.580;2022-08-21T13:19:06;25.40;91.00
45237;DHT22;30973;51.442;3.580;2022-08-21T13:21:42;25.70;90.70
45237;DHT22;30973;51.442;3.580;2022-08-21T13:24:21;25.60;90.10
45237;DHT22;30973;51.442;3.580;2022-08-21T13:27:37;25.50;88.40
45237;DHT22;30973;51.442;3.580;2022-08-21T13:30:14;25.40;87.70
45237;DHT22;30973;51.442;3.580;2022-08-21T13:32:48;25.30;89.30
45237;DHT22;30973;51.442;3.580;2022-08-21T13:35:21;25.40;89.50
45237;DHT22;30973;51.442;3.580;2022-08-21T13:37:50;25.60;90.10
45237;DHT22;30973;51.442;3.580;2022-08-21T13:40:28;25.60;88.60
45237;DHT22;30973;51.442;3.580;2022-08-21T13:42:56;25.60;88.20
45237;DHT22;30973;51.442;3.580;2022-08-21T13:45:32;25.50;88.40
45237;DHT22;30973;51.442;3.580;2022-08-21T13:48:01;25.50;89.70
45237;DHT22;30973;51.442;3.580;2022-08-21T13:50:35;25.70;90.40
45237;DHT22;30973;51.442;3.580;2022-08-21T13:53:05;26.00;89.20
45237;DHT22;30973;51.442;3.580;2022-08-21T13:55:42;26.10;88.70
45237;DHT22;30973;51.442;3.580;2022-08-21T13:58:11;26.20;88.00
45237;DHT22;30973;51.442;3.580;2022-08-21T14:00:50;26.20;87.60
45237;DHT22;30973;51.442;3.580;2022-08-21T14:03:43;26.40;89.50
45237;DHT22;30973;51.442;3.580;2022-08-21T14:06:14;26.70;87.30
45237;DHT22;30973;51.442;3.580;2022-08-21T14:08:52;26.80;86.90
45237;DHT22;30973;51.442;3.580;2022-08-21T14:11:21;26.70;84.90
45237;DHT22;30973;51.442;3.580;2022-08-21T14:14:00;26.50;87.10
45237;DHT22;30973;51.442;3.580;2022-08-21T14:16:53;26.30;86.60
45237;DHT22;30973;51.442;3.580;2022-08-21T14:19:27;26.00;85.90
45237;DHT22;30973;51.442;3.580;2022-08-21T14:21:55;25.80;86.50
45237;DHT22;30973;51.442;3.580;2022-08-21T14:26:55;25.50;86.90
45237;DHT22;30973;51.442;3.580;2022-08-21T14:29:26;25.40;86.30
45237;DHT22;30973;51.442;3.580;2022-08-21T14:32:00;25.20;87.70
45237;DHT22;30973;51.442;3.580;2022-08-21T14:34:52;25.20;88.70
45237;DHT22;30973;51.442;3.580;2022-08-21T14:37:21;25.00;86.70
45237;DHT22;30973;51.442;3.580;2022-08-21T14:39:49;25.00;87.90
45237;DHT22;30973;51.442;3.580;2022-08-21T14:42:17;25.00;89.20
45237;DHT22;30973;51.442;3.580;2022-08-21T14:44:44;25.00;88.50
45237;DHT22;30973;51.442;3.580;2022-08-21T14:47:12;25.10;88.50
45237;DHT22;30973;51.442;3.580;2022-08-21T14:49:39;25.20;89.20
45237;DHT22;30973;51.442;3.580;2022-08-21T14:52:07;25.20;88.00
45237;DHT22;30973;51.442;3.580;2022-08-21T14:54:34;25.30;88.00
45237;DHT22;30973;51.442;3.580;2022-08-21T14:57:06;25.20;87.80
45237;DHT22;30973;51.442;3.580;2022-08-21T14:59:34;25.00;86.70
45237;DHT22;30973;51.442;3.580;2022-08-21T15:02:02;24.90;87.10
45237;DHT22;30973;51.442;3.580;2022-08-21T15:04:32;24.80;88.70
45237;DHT22;30973;51.442;3.580;2022-08-21T15:07:00;24.80;88.60
45237;DHT22;30973;51.442;3.580;2022-08-21T15:09:28;24.80;88.20
45237;DHT22;30973;51.442;3.580;2022-08-21T15:11:57;24.90;88.70
45237;DHT22;30973;51.442;3.580;2022-08-21T15:14:27;24.90;89.50
45237;DHT22;30973;51.442;3.580;2022-08-21T15:16:55;24.80;89.30
45237;DHT22;30973;51.442;3.580;2022-08-21T15:19:23;24.80;88.40
45237;DHT22;30973;51.442;3.580;2022-08-21T15:21:50;24.80;88.50
45237;DHT22;30973;51.442;3.580;2022-08-21T15:24:17;24.70;89.00
45237;DHT22;30973;51.442;3.580;2022-08-21T15:26:45;24.70;89.40
45237;DHT22;30973;51.442;3.580;2022-08-21T15:29:12;24.70;88.40
45237;DHT22;30973;51.442;3.580;2022-08-21T15:31:59;24.70;89.00
45237;DHT22;30973;51.442;3.580;2022-08-21T15:34:29;24.70;88.80
45237;DHT22;30973;51.442;3.580;2022-08-21T15:36:57;24.70;88.60
45237;DHT22;30973;51.442;3.580;2022-08-21T15:39:25;24.80;88.60
45237;DHT22;30973;51.442;3.580;2022-08-21T15:42:03;24.80;87.80
45237;DHT22;30973;51.442;3.580;2022-08-21T15:44:41;24.80;88.30
45237;DHT22;30973;51.442;3.580;2022-08-21T15:47:14;24.80;88.90
45237;DHT22;30973;51.442;3.580;2022-08-21T15:49:42;24.80;88.80
45237;DHT22;30973;51.442;3.580;2022-08-21T15:52:16;24.70;88.40
45237;DHT22;30973;51.442;3.580;2022-08-21T15:54:44;24.70;89.10
45237;DHT22;30973;51.442;3.580;2022-08-21T15:57:13;24.60;88.60
45237;DHT22;30973;51.442;3.580;2022-08-21T15:59:44;24.60;89.70
45237;DHT22;30973;51.442;3.580;2022-08-21T16:02:19;24.60;89.40
45237;DHT22;30973;51.442;3.580;2022-08-21T16:04:48;24.60;89.10
45237;DHT22;30973;51.442;3.580;2022-08-21T16:07:16;24.60;89.10
45237;DHT22;30973;51.442;3.580;2022-08-21T16:09:43;24.70;89.20
45237;DHT22;30973;51.442;3.580;2022-08-21T16:12:22;24.70;89.40
45237;DHT22;30973;51.442;3.580;2022-08-21T16:14:52;24.70;88.90
45237;DHT22;30973;51.442;3.580;2022-08-21T16:17:29;24.60;89.20
45237;DHT22;30973;51.442;3.580;2022-08-21T16:19:57;24.50;89.40
45237;DHT22;30973;51.442;3.580;2022-08-21T16:22:25;24.50;90.00
45237;DHT22;30973;51.442;3.580;2022-08-21T16:25:06;24.50;89.90
45237;DHT22;30973;51.442;3.580;2022-08-21T16:27:35;24.60;90.00
45237;DHT22;30973;51.442;3.580;2022-08-21T16:30:06;24.50;89.80
45237;DHT22;30973;51.442;3.580;2022-08-21T16:32:33;24.50;90.00
45237;DHT22;30973;51.442;3.580;2022-08-21T16:35:02;24.50;90.10
45237;DHT22;30973;51.442;3.580;2022-08-21T16:37:30;24.60;90.20
45237;DHT22;30973;51.442;3.580;2022-08-21T16:39:58;24.60;89.40
45237;DHT22;30973;51.442;3.580;2022-08-21T16:42:25;24.50;89.90
45237;DHT22;30973;51.442;3.580;2022-08-21T16:44:53;24.50;90.00
45237;DHT22;30973;51.442;3.580;2022-08-21T16:47:21;24.50;90.00
45237;DHT22;30973;51.442;3.580;2022-08-21T16:49:53;24.30;90.10
45237;DHT22;30973;51.442;3.580;2022-08-21T16:52:20;24.30;90.20
45237;DHT22;30973;51.442;3.580;2022-08-21T16:54:48;24.30;90.10
45237;DHT22;30973;51.442;3.580;2022-08-21T16:57:15;24.30;90.00
45237;DHT22;30973;51.442;3.580;2022-08-21T16:59:43;24.20;90.10
45237;DHT22;30973;51.442;3.580;2022-08-21T17:02:32;24.10;90.20
45237;DHT22;30973;51.442;3.580;2022-08-21T17:05:01;24.10;90.40
45237;DHT22;30973;51.442;3.580;2022-08-21T17:07:29;24.00;90.40
45237;DHT22;30973;51.442;3.580;2022-08-21T17:10:03;24.00;90.60
45237;DHT22;30973;51.442;3.580;2022-08-21T17:12:30;23.90;90.60
45237;DHT22;30973;51.442;3.580;2022-08-21T17:15:03;23.90;90.70
45237;DHT22;30973;51.442;3.580;2022-08-21T17:17:33;23.80;90.70
45237;DHT22;30973;51.442;3.580;2022-08-21T17:20:01;23.80;90.80
45237;DHT22;30973;51.442;3.580;2022-08-21T17:22:28;23.80;90.80
45237;DHT22;30973;51.442;3.580;2022-08-21T17:24:55;23.70;91.00
45237;DHT22;30973;51.442;3.580;2022-08-21T17:27:23;23.80;90.90
45237;DHT22;30973;51.442;3.580;2022-08-21T17:29:54;23.60;90.90
45237;DHT22;30973;51.442;3.580;2022-08-21T17:32:22;23.60;90.90
45237;DHT22;30973;51.442;3.580;2022-08-21T17:34:50;23.50;91.10
45237;DHT22;30973;51.442;3.580;2022-08-21T17:37:18;23.50;91.00
45237;DHT22;30973;51.442;3.580;2022-08-21T17:39:46;23.50;91.10
45237;DHT22;30973;51.442;3.580;2022-08-21T17:42:13;23.40;91.20
45237;DHT22;30973;51.442;3.580;2022-08-21T17:44:44;23.40;91.10
45237;DHT22;30973;51.442;3.580;2022-08-21T17:47:12;23.40;91.20
45237;DHT22;30973;51.442;3.580;2022-08-21T17:49:39;23.40;91.40
45237;DHT22;30973;51.442;3.580;2022-08-21T17:52:07;23.40;91.40
45237;DHT22;30973;51.442;3.580;2022-08-21T17:54:36;23.30;91.30
45237;DHT22;30973;51.442;3.580;2022-08-21T17:57:03;23.30;91.40
45237;DHT22;30973;51.442;3.580;2022-08-21T17:59:31;23.30;91.40
45237;DHT22;30973;51.442;3.580;2022-08-21T18:01:59;23.30;91.40
45237;DHT22;30973;51.442;3.580;2022-08-21T18:04:29;23.20;91.40
45237;DHT22;30973;51.442;3.580;2022-08-21T18:06:56;23.20;91.50
45237;DHT22;30973;51.442;3.580;2022-08-21T18:09:24;23.20;91.50
45237;DHT22;30973;51.442;3.580;2022-08-21T18:11:55;23.20;91.50
45237;DHT22;30973;51.442;3.580;2022-08-21T18:14:29;23.10;91.50
45237;DHT22;30973;51.442;3.580;2022-08-21T18:16:57;23.10;91.50
45237;DHT22;30973;51.442;3.580;2022-08-21T18:19:24;23.10;91.60
45237;DHT22;30973;51.442;3.580;2022-08-21T18:21:53;23.00;91.60
45237;DHT22;30973;51.442;3.580;2022-08-21T18:24:22;23.00;91.60
45237;DHT22;30973;51.442;3.580;2022-08-21T18:26:50;23.00;91.60
45237;DHT22;30973;51.442;3.580;2022-08-21T18:29:19;23.00;91.60
45237;DHT22;30973;51.442;3.580;2022-08-21T18:31:48;23.00;91.70
45237;DHT22;30973;51.442;3.580;2022-08-21T18:34:28;22.90;91.70
45237;DHT22;30973;51.442;3.580;2022-08-21T18:36:56;22.90;91.80
45237;DHT22;30973;51.442;3.580;2022-08-21T18:39:23;22.90;91.80
45237;DHT22;30973;51.442;3.580;2022-08-21T18:42:07;22.90;91.70
45237;DHT22;30973;51.442;3.580;2022-08-21T18:44:35;22.80;91.70
45237;DHT22;30973;51.442;3.580;2022-08-21T18:47:09;22.80;91.80
45237;DHT22;30973;51.442;3.580;2022-08-21T18:49:40;22.80;91.80
45237;DHT22;30973;51.442;3.580;2022-08-21T18:52:08;22.70;91.80
45237;DHT22;30973;51.442;3.580;2022-08-21T18:54:35;22.70;91.80
45237;DHT22;30973;51.442;3.580;2022-08-21T18:57:08;22.70;91.80
45237;DHT22;30973;51.442;3.580;2022-08-21T18:59:36;22.70;91.80
45237;DHT22;30973;51.442;3.580;2022-08-21T19:02:06;22.60;91.80
45237;DHT22;30973;51.442;3.580;2022-08-21T19:04:35;22.60;91.90
45237;DHT22;30973;51.442;3.580;2022-08-21T19:07:11;22.60;91.90
45237;DHT22;30973;51.442;3.580;2022-08-21T19:09:41;22.60;91.90
45237;DHT22;30973;51.442;3.580;2022-08-21T19:12:17;22.50;91.90
45237;DHT22;30973;51.442;3.580;2022-08-21T19:14:47;22.50;92.00
45237;DHT22;30973;51.442;3.580;2022-08-21T19:17:19;22.50;92.00
45237;DHT22;30973;51.442;3.580;2022-08-21T19:19:46;22.50;92.00
45237;DHT22;30973;51.442;3.580;2022-08-21T19:22:18;22.50;92.10
45237;DHT22;30973;51.442;3.580;2022-08-21T19:24:45;22.50;92.10
45237;DHT22;30973;51.442;3.580;2022-08-21T19:27:16;22.40;92.10
45237;DHT22;30973;51.442;3.580;2022-08-21T19:29:44;22.50;92.20
45237;DHT22;30973;51.442;3.580;2022-08-21T19:32:11;22.50;92.10
45237;DHT22;30973;51.442;3.580;2022-08-21T19:34:40;22.50;92.10
45237;DHT22;30973;51.442;3.580;2022-08-21T19:37:09;22.40;92.20
45237;DHT22;30973;51.442;3.580;2022-08-21T19:39:37;22.30;92.10
45237;DHT22;30973;51.442;3.580;2022-08-21T19:42:25;22.40;92.20
45237;DHT22;30973;51.442;3.580;2022-08-21T19:44:54;22.30;92.30
45237;DHT22;30973;51.442;3.580;2022-08-21T19:47:23;22.30;92.30
45237;DHT22;30973;51.442;3.580;2022-08-21T19:49:57;22.30;92.30
45237;DHT22;30973;51.442;3.580;2022-08-21T19:52:25;22.30;92.30
45237;DHT22;30973;51.442;3.580;2022-08-21T19:54:53;22.30;92.60
45237;DHT22;30973;51.442;3.580;2022-08-21T19:57:21;22.20;92.30
45237;DHT22;30973;51.442;3.580;2022-08-21T19:59:48;22.30;92.40
45237;DHT22;30973;51.442;3.580;2022-08-21T20:02:16;22.30;92.40
45237;DHT22;30973;51.442;3.580;2022-08-21T20:04:46;22.30;92.40
45237;DHT22;30973;51.442;3.580;2022-08-21T20:07:19;22.30;92.40
45237;DHT22;30973;51.442;3.580;2022-08-21T20:09:54;22.30;92.40
45237;DHT22;30973;51.442;3.580;2022-08-21T20:12:23;22.20;92.40
45237;DHT22;30973;51.442;3.580;2022-08-21T20:14:50;22.20;92.30
45237;DHT22;30973;51.442;3.580;2022-08-21T20:17:19;22.20;92.40
45237;DHT22;30973;51.442;3.580;2022-08-21T20:19:47;22.20;92.60
45237;DHT22;30973;51.442;3.580;2022-08-21T20:22:22;22.10;92.60
45237;DHT22;30973;51.442;3.580;2022-08-21T20:24:50;22.20;92.80
45237;DHT22;30973;51.442;3.580;2022-08-21T20:27:21;22.20;92.90
45237;DHT22;30973;51.442;3.580;2022-08-21T20:29:49;22.10;93.00
45237;DHT22;30973;51.442;3.580;2022-08-21T20:32:17;22.10;93.10
45237;DHT22;30973;51.442;3.580;2022-08-21T20:34:44;22.10;93.20
45237;DHT22;30973;51.442;3.580;2022-08-21T20:37:18;22.10;93.20
45237;DHT22;30973;51.442;3.580;2022-08-21T20:40:08;22.10;93.50
45237;DHT22;30973;51.442;3.580;2022-08-21T20:42:38;22.10;93.40
45237;DHT22;30973;51.442;3.580;2022-08-21T20:45:06;22.10;93.30
45237;DHT22;30973;51.442;3.580;2022-08-21T20:47:35;22.00;93.50
45237;DHT22;30973;51.442;3.580;2022-08-21T20:50:05;22.00;93.40
45237;DHT22;30973;51.442;3.580;2022-08-21T20:52:40;22.00;93.60
45237;DHT22;30973;51.442;3.580;2022-08-21T20:55:14;21.90;93.80
45237;DHT22;30973;51.442;3.580;2022-08-21T20:57:58;21.90;93.60
45237;DHT22;30973;51.442;3.580;2022-08-21T21:00:32;21.90;93.60
45237;DHT22;30973;51.442;3.580;2022-08-21T21:05:54;21.80;93.60
45237;DHT22;30973;51.442;3.580;2022-08-21T21:08:33;21.80;93.50
45237;DHT22;30973;51.442;3.580;2022-08-21T21:11:03;21.80;93.60
45237;DHT22;30973;51.442;3.580;2022-08-21T21:13:40;21.80;93.50
45237;DHT22;30973;51.442;3.580;2022-08-21T21:16:13;21.80;93.50
45237;DHT22;30973;51.442;3.580;2022-08-21T21:18:45;21.90;93.40
45237;DHT22;30973;51.442;3.580;2022-08-21T21:24:10;21.80;93.40
45237;DHT22;30973;51.442;3.580;2022-08-21T21:26:54;21.80;93.30
45237;DHT22;30973;51.442;3.580;2022-08-21T21:29:36;21.80;93.30
45237;DHT22;30973;51.442;3.580;2022-08-21T21:32:07;21.70;93.40
45237;DHT22;30973;51.442;3.580;2022-08-21T21:34:45;21.70;93.50
45237;DHT22;30973;51.442;3.580;2022-08-21T21:37:21;21.70;93.60
45237;DHT22;30973;51.442;3.580;2022-08-21T21:42:57;21.70;93.70
45237;DHT22;30973;51.442;3.580;2022-08-21T21:48:44;21.70;93.60
45237;DHT22;30973;51.442;3.580;2022-08-21T21:51:36;21.70;93.60
45237;DHT22;30973;51.442;3.580;2022-08-21T22:05:05;21.70;93.80
45237;DHT22;30973;51.442;3.580;2022-08-21T22:07:46;21.70;93.70
45237;DHT22;30973;51.442;3.580;2022-08-21T22:10:30;21.60;93.70
45237;DHT22;30973;51.442;3.580;2022-08-21T22:13:27;21.60;93.60
45237;DHT22;30973;51.442;3.580;2022-08-21T22:16:01;21.60;93.70
45237;DHT22;30973;51.442;3.580;2022-08-21T22:18:54;21.60;93.70
45237;DHT22;30973;51.442;3.580;2022-08-21T22:21:28;21.60;93.60
45237;DHT22;30973;51.442;3.580;2022-08-21T22:24:08;21.60;93.40
45237;DHT22;30973;51.442;3.580;2022-08-21T22:26:40;21.60;93.30
45237;DHT22;30973;51.442;3.580;2022-08-21T22:29:15;21.60;93.20
45237;DHT22;30973;51.442;3.580;2022-08-21T22:31:45;21.60;93.20
45237;DHT22;30973;51.442;3.580;2022-08-21T22:34:26;21.60;93.30
45237;DHT22;30973;51.442;3.580;2022-08-21T22:36:58;21.50;93.30
45237;DHT22;30973;51.442;3.580;2022-08-21T22:39:30;21.50;93.40
45237;DHT22;30973;51.442;3.580;2022-08-21T22:42:11;21.50;93.60
45237;DHT22;30973;51.442;3.580;2022-08-21T22:45:05;21.50;93.60
45237;DHT22;30973;51.442;3.580;2022-08-21T22:47:43;21.60;93.50
45237;DHT22;30973;51.442;3.580;2022-08-21T22:50:31;21.50;93.60
45237;DHT22;30973;51.442;3.580;2022-08-21T22:53:07;21.50;93.70